Time;durP1;ratioP1;P1;durP2;ratioP2;P2;SDS_P1;SDS_P2;PMS_P1;PMS_P2;Temp;Humidity;BMP_temperature;BMP_pressure;BME280_temperature;BME280_humidity;BME280_pressure;Samples;Min_cycle;Max_cycle;Signal;HPM_P1;HPM_P2
2023/12/25 00:00:15;;;;;;;4.87;2.23;;;;;;;7.64;100.00;97939.50;4995623;28;20727;-62
2023/12/25 00:02:43;;;;;;;2.30;2.10;;;;;;;7.70;100.00;97959.81;4995316;28;20247;-61
2023/12/25 00:05:11;;;;;;;2.30;2.00;;;;;;;7.72;100.00;97940.09;4995343;28;20250;-62
2023/12/25 00:07:39;;;;;;;3.10;2.10;;;;;;;7.72;100.00;97942.66;4995620;28;20208;-63
2023/12/25 00:10:08;;;;;;;2.00;1.80;;;;;;;7.73;100.00;97946.91;4995293;28;20607;-60
2023/12/25 00:12:36;;;;;;;2.73;2.30;;;;;;;7.78;100.00;97933.09;4993781;28;20235;-61
2023/12/25 00:15:05;;;;;;;1.80;1.70;;;;;;;7.78;100.00;97930.53;4995097;28;20223;-61
2023/12/25 00:17:34;;;;;;;1.97;1.87;;;;;;;7.81;100.00;97938.13;4994935;28;20204;-62
2023/12/25 00:20:03;;;;;;;2.00;1.80;;;;;;;7.84;100.00;97940.56;4994976;28;20311;-60
2023/12/25 00:22:31;;;;;;;2.40;2.03;;;;;;;7.86;100.00;97949.88;4994938;28;20674;-60
2023/12/25 00:24:59;;;;;;;2.70;1.97;;;;;;;7.88;100.00;97937.84;4994810;28;20204;-66
2023/12/25 00:27:27;;;;;;;1.97;1.87;;;;;;;7.91;100.00;97954.84;4994798;28;20200;-60
2023/12/25 00:29:55;;;;;;;2.10;1.93;;;;;;;7.95;100.00;97958.97;4993416;28;20208;-61
2023/12/25 00:32:23;;;;;;;2.23;2.03;;;;;;;7.98;100.00;97964.84;4994623;28;20215;-61
2023/12/25 00:34:52;;;;;;;2.43;2.23;;;;;;;8.01;100.00;97958.78;4994897;28;20670;-63
2023/12/25 00:37:20;;;;;;;2.43;2.03;;;;;;;8.02;100.00;97957.03;4994797;28;20200;-61
2023/12/25 00:39:48;;;;;;;2.93;2.63;;;;;;;8.03;100.00;97967.25;4995142;28;20697;-62
2023/12/25 00:42:16;;;;;;;3.30;3.00;;;;;;;8.09;100.00;97967.03;4994703;28;20204;-61
2023/12/25 00:44:44;;;;;;;3.03;2.50;;;;;;;8.14;100.00;97960.03;4993641;28;20232;-58
2023/12/25 00:47:12;;;;;;;2.50;2.30;;;;;;;8.17;100.00;97961.63;4994485;28;20215;-61
2023/12/25 00:49:40;;;;;;;2.50;2.30;;;;;;;8.17;100.00;97946.22;4994360;28;20234;-61
2023/12/25 00:52:09;;;;;;;2.93;2.70;;;;;;;8.23;100.00;97962.25;4993788;28;20282;-61
2023/12/25 00:54:37;;;;;;;2.90;2.70;;;;;;;8.28;100.00;97962.09;4994582;28;20208;-60
2023/12/25 00:57:05;;;;;;;2.97;2.77;;;;;;;8.30;100.00;97964.59;4994492;28;20200;-61
2023/12/25 00:59:33;;;;;;;2.60;2.40;;;;;;;8.33;100.00;97954.25;4994360;28;20200;-64
2023/12/25 01:02:02;;;;;;;3.13;2.93;;;;;;;8.37;100.00;97958.38;4993117;28;20200;-61
2023/12/25 01:04:29;;;;;;;3.07;2.87;;;;;;;8.40;100.00;97950.59;4994221;28;20239;-60
2023/12/25 01:06:57;;;;;;;3.80;3.50;;;;;;;8.43;100.00;97963.28;4994444;28;20659;-60
2023/12/25 01:09:27;;;;;;;3.20;2.90;;;;;;;8.42;100.00;97969.31;4994373;28;20722;-60
2023/12/25 01:11:55;;;;;;;3.00;2.80;;;;;;;8.40;100.00;97946.28;4994039;28;20243;-60
2023/12/25 01:14:23;;;;;;;4.20;3.67;;;;;;;8.43;100.00;97953.03;4994304;28;20196;-62
2023/12/25 01:16:51;;;;;;;3.93;3.63;;;;;;;8.44;100.00;97955.56;4993966;28;20208;-61
2023/12/25 01:19:19;;;;;;;4.13;3.70;;;;;;;8.41;100.00;97939.44;4991067;28;20203;-63
2023/12/25 01:21:46;;;;;;;3.77;3.47;;;;;;;8.37;100.00;97946.41;4993982;28;20788;-60
2023/12/25 01:24:14;;;;;;;4.23;3.83;;;;;;;8.34;100.00;97967.00;4993795;28;20243;-60
2023/12/25 01:26:44;;;;;;;3.90;3.53;;;;;;;8.30;100.00;97965.44;4993646;28;20211;-63
2023/12/25 01:29:12;;;;;;;3.87;3.53;;;;;;;8.27;100.00;97962.97;4993750;28;20211;-59
2023/12/25 01:31:41;;;;;;;4.27;3.77;;;;;;;8.27;100.00;97946.75;4993884;28;20671;-62
2023/12/25 01:34:09;;;;;;;3.70;3.40;;;;;;;8.28;100.00;97953.56;4993666;28;20212;-61
2023/12/25 01:36:38;;;;;;;3.80;3.50;;;;;;;8.32;100.00;97953.41;4992209;28;20675;-62
2023/12/25 01:39:06;;;;;;;4.13;3.73;;;;;;;8.36;100.00;97961.84;4993983;28;20682;-63
2023/12/25 01:41:34;;;;;;;4.07;2.93;;;;;;;8.38;100.00;97957.50;4993642;28;20674;-62
2023/12/25 01:44:03;;;;;;;3.30;3.00;;;;;;;8.37;100.00;97956.66;4993484;28;20208;-62
2023/12/25 01:46:42;;;;;;;3.00;2.80;;;;;;;8.39;100.00;97966.88;4993660;28;20207;-62
2023/12/25 01:49:10;;;;;;;3.23;2.40;;;;;;;8.42;100.00;97954.75;4993267;28;20204;-60
2023/12/25 01:51:38;;;;;;;2.07;1.87;;;;;;;8.49;100.00;97954.53;4992201;28;20204;-62
2023/12/25 01:54:07;;;;;;;1.60;1.50;;;;;;;8.53;100.00;97958.66;4982345;28;20636;-62
2023/12/25 01:56:35;;;;;;;1.63;1.53;;;;;;;8.52;100.00;97970.66;4993175;28;20208;-62
2023/12/25 01:59:04;;;;;;;1.33;1.17;;;;;;;8.51;100.00;97958.75;4993150;28;20204;-61
2023/12/25 02:01:33;;;;;;;0.90;0.90;;;;;;;8.54;100.00;97968.03;4993445;28;20274;-63
2023/12/25 02:04:00;;;;;;;1.73;0.90;;;;;;;8.57;99.72;97961.06;4993438;28;20700;-62
2023/12/25 02:06:29;;;;;;;0.60;0.60;;;;;;;8.60;97.92;97976.34;4992954;28;20204;-60
2023/12/25 02:08:58;;;;;;;0.60;0.60;;;;;;;8.62;96.25;97948.91;4991435;28;20208;-62
2023/12/25 02:11:26;;;;;;;0.70;0.47;;;;;;;8.60;95.24;97945.53;4992786;28;20258;-62
2023/12/25 02:13:56;;;;;;;0.83;0.70;;;;;;;8.59;93.44;97966.97;4992905;28;20259;-65
2023/12/25 02:16:26;;;;;;;0.70;0.43;;;;;;;8.57;92.69;97970.50;4993002;28;20663;-60
2023/12/25 02:18:54;;;;;;;0.93;0.63;;;;;;;8.54;92.12;97984.25;4991682;28;20679;-61
2023/12/25 02:21:22;;;;;;;0.50;0.50;;;;;;;8.51;91.17;97963.88;4992525;28;20362;-62
2023/12/25 02:23:59;;;;;;;1.73;0.50;;;;;;;8.51;91.35;97993.84;4993001;28;20208;-61
2023/12/25 02:26:29;;;;;;;0.90;0.60;;;;;;;8.45;91.06;97974.34;4992882;28;20215;-60
2023/12/25 02:28:57;;;;;;;1.20;0.40;;;;;;;8.42;90.46;97975.28;4992803;28;20722;-61
2023/12/25 02:31:25;;;;;;;2.40;0.57;;;;;;;8.40;90.71;98002.75;4992893;28;20208;-66
2023/12/25 02:33:53;;;;;;;1.03;0.47;;;;;;;8.38;90.73;98008.81;4992017;28;20730;-61
2023/12/25 02:36:21;;;;;;;1.50;0.40;;;;;;;8.34;91.37;97991.84;4992845;28;20667;-68
2023/12/25 02:38:49;;;;;;;0.70;0.47;;;;;;;8.32;92.30;98017.56;4992558;28;20239;-61
2023/12/25 02:41:19;;;;;;;2.10;0.63;;;;;;;8.29;93.35;98027.91;4992406;28;20263;-62
2023/12/25 02:43:49;;;;;;;1.00;0.53;;;;;;;8.30;93.57;98015.91;4992454;28;20215;-60
2023/12/25 02:46:17;;;;;;;1.13;0.77;;;;;;;8.32;95.51;98029.53;4992339;28;20207;-60
2023/12/25 02:48:45;;;;;;;0.87;0.87;;;;;;;8.32;97.15;98029.53;4991297;28;20210;-59
2023/12/25 02:51:13;;;;;;;1.90;1.10;;;;;;;8.30;97.49;98028.75;4992121;28;20239;-61
2023/12/25 02:53:41;;;;;;;1.10;0.90;;;;;;;8.34;99.27;98028.59;4992423;28;20307;-61
2023/12/25 02:56:09;;;;;;;2.83;1.00;;;;;;;8.37;99.26;98040.47;4992181;28;20212;-60
2023/12/25 02:58:37;;;;;;;1.33;0.87;;;;;;;8.37;99.33;98043.91;4992479;28;20632;-61
2023/12/25 03:01:06;;;;;;;0.93;0.90;;;;;;;8.36;99.58;98036.25;4992182;28;20204;-60
2023/12/25 03:03:33;;;;;;;1.63;0.67;;;;;;;8.34;99.29;98058.53;4991863;28;20208;-61
2023/12/25 03:06:01;;;;;;;2.10;0.70;;;;;;;8.30;99.02;98037.28;4992554;28;20681;-61
2023/12/25 03:08:29;;;;;;;0.90;0.60;;;;;;;8.29;99.13;98030.47;4991032;28;20227;-62
2023/12/25 03:10:57;;;;;;;1.50;0.87;;;;;;;8.28;98.93;98051.03;4992349;28;20755;-60
2023/12/25 03:13:25;;;;;;;0.93;0.73;;;;;;;8.22;98.65;98052.94;4992106;28;20199;-61
2023/12/25 03:15:53;;;;;;;3.50;0.90;;;;;;;8.21;98.28;98043.59;4991845;28;20214;-62
2023/12/25 03:18:22;;;;;;;0.70;0.50;;;;;;;8.22;97.38;98050.38;4991116;28;20216;-62
2023/12/25 03:20:51;;;;;;;0.87;0.70;;;;;;;8.21;96.70;98060.66;4991768;28;20211;-60
2023/12/25 03:23:19;;;;;;;1.30;0.57;;;;;;;8.19;95.85;98058.16;4992219;28;20677;-62
2023/12/25 03:25:46;;;;;;;0.43;0.30;;;;;;;8.22;95.10;98060.63;4990502;28;20239;-59
2023/12/25 03:28:14;;;;;;;0.80;0.53;;;;;;;8.21;94.96;98071.78;4992017;28;20597;-59
2023/12/25 03:30:42;;;;;;;1.13;0.50;;;;;;;8.21;94.38;98065.81;4991910;28;20605;-59
2023/12/25 03:33:11;;;;;;;1.37;0.50;;;;;;;8.22;93.91;98081.16;4992134;28;20640;-62
2023/12/25 03:35:40;;;;;;;1.17;0.33;;;;;;;8.22;94.40;98072.63;4991783;28;20204;-62
2023/12/25 03:38:08;;;;;;;2.63;0.50;;;;;;;8.21;93.78;98076.94;4990693;28;20555;-63
2023/12/25 03:40:36;;;;;;;1.37;0.40;;;;;;;8.21;94.49;98079.50;4991725;28;20291;-61
2023/12/25 03:43:04;;;;;;;0.40;0.40;;;;;;;8.23;94.47;98082.00;4991815;28;20713;-61
2023/12/25 03:45:32;;;;;;;2.70;0.50;;;;;;;8.22;94.50;98076.03;4991694;28;20295;-60
2023/12/25 03:48:00;;;;;;;0.60;0.50;;;;;;;8.22;93.63;98091.41;4991455;28;20215;-61
2023/12/25 03:50:28;;;;;;;1.13;0.47;;;;;;;8.21;93.87;98097.44;4991592;28;20577;-61
2023/12/25 03:52:57;;;;;;;0.47;0.43;;;;;;;8.23;93.80;98113.63;4991496;28;20207;-63
2023/12/25 03:55:25;;;;;;;1.33;0.57;;;;;;;8.23;93.40;98110.22;4990421;28;20643;-61
2023/12/25 03:57:53;;;;;;;0.93;0.60;;;;;;;8.24;92.96;98120.41;4991486;28;20220;-61
2023/12/25 04:00:21;;;;;;;2.53;0.60;;;;;;;8.24;93.56;98120.41;4992022;28;20730;-62
2023/12/25 04:02:50;;;;;;;2.70;0.53;;;;;;;8.25;92.83;98131.53;4991443;28;20290;-62
2023/12/25 04:05:19;;;;;;;1.30;0.60;;;;;;;8.26;93.36;98142.63;4991840;28;20204;-61
2023/12/25 04:07:47;;;;;;;1.40;0.47;;;;;;;8.26;92.73;98135.78;4991425;28;20243;-60
2023/12/25 04:10:17;;;;;;;2.10;0.50;;;;;;;8.28;93.22;98140.84;4986116;28;20566;-61
2023/12/25 04:12:45;;;;;;;1.53;0.60;;;;;;;8.27;93.72;98150.28;4991442;28;20216;-61
2023/12/25 04:15:13;;;;;;;1.33;0.60;;;;;;;8.28;92.66;98130.59;4991519;28;20566;-60
2023/12/25 04:17:41;;;;;;;3.07;0.60;;;;;;;8.28;91.97;98146.81;4991101;28;20220;-60
2023/12/25 04:20:10;;;;;;;1.93;0.87;;;;;;;8.26;91.99;98169.13;4991376;28;20204;-59
2023/12/25 04:22:38;;;;;;;5.20;0.90;;;;;;;8.22;92.34;98163.25;4991209;28;20327;-60
2023/12/25 04:25:07;;;;;;;1.97;0.50;;;;;;;8.20;92.27;98179.56;4991091;28;20208;-60
2023/12/25 04:27:36;;;;;;;2.37;0.70;;;;;;;8.18;92.08;98184.78;4989757;28;20254;-61
2023/12/25 04:30:05;;;;;;;0.80;0.70;;;;;;;8.15;91.79;98169.47;4985017;28;20729;-60
2023/12/25 04:32:33;;;;;;;3.30;0.70;;;;;;;8.12;91.10;98187.53;4994793;28;20303;-61
2023/12/25 04:35:01;;;;;;;4.37;0.70;;;;;;;8.10;90.90;98176.50;4994706;28;20208;-61
2023/12/25 04:37:29;;;;;;;2.97;0.50;;;;;;;8.09;91.78;98190.19;4994703;28;20235;-60
2023/12/25 04:39:57;;;;;;;1.00;0.60;;;;;;;8.08;91.39;98193.63;4994435;28;20204;-61
2023/12/25 04:42:25;;;;;;;2.97;0.80;;;;;;;8.09;91.71;98204.72;4993445;28;20224;-60
2023/12/25 04:44:54;;;;;;;1.70;0.70;;;;;;;8.06;92.25;98205.66;4994327;28;20215;-61
2023/12/25 04:47:22;;;;;;;1.70;0.70;;;;;;;8.05;92.29;98201.41;4994556;28;20204;-60
2023/12/25 04:49:50;;;;;;;0.97;0.60;;;;;;;8.03;92.71;98202.34;4994652;28;20319;-63
2023/12/25 04:52:18;;;;;;;2.10;0.83;;;;;;;7.99;92.29;98186.25;4994262;28;20303;-61
2023/12/25 04:54:46;;;;;;;1.93;0.70;;;;;;;7.98;93.04;98212.75;4994475;28;20215;-61
2023/12/25 04:57:14;;;;;;;1.43;0.87;;;;;;;7.96;92.62;98191.47;4994314;28;20214;-61
2023/12/25 04:59:42;;;;;;;3.57;1.17;;;;;;;7.96;92.55;98201.72;4992955;28;20240;-60
2023/12/25 05:02:11;;;;;;;1.53;0.83;;;;;;;7.96;92.74;98188.91;4994317;28;20200;-59
2023/12/25 05:04:39;;;;;;;1.43;0.70;;;;;;;7.97;93.64;98198.25;4994369;28;20257;-61
2023/12/25 05:07:07;;;;;;;3.90;0.90;;;;;;;7.97;94.74;98203.38;4993909;28;20254;-64
2023/12/25 05:09:35;;;;;;;2.40;0.70;;;;;;;7.95;94.87;98210.28;4993974;28;20219;-60
2023/12/25 05:12:03;;;;;;;1.60;0.50;;;;;;;7.93;95.68;98212.91;4994113;28;20266;-60
2023/12/25 05:14:31;;;;;;;1.03;0.80;;;;;;;7.93;96.03;98217.19;4991266;28;20208;-55
2023/12/25 05:16:59;;;;;;;3.23;0.90;;;;;;;7.91;96.35;98199.28;4993909;28;20210;-62
2023/12/25 05:19:28;;;;;;;2.20;0.80;;;;;;;7.90;96.29;98220.69;4993804;28;20235;-58
2023/12/25 05:21:56;;;;;;;1.87;0.83;;;;;;;7.90;96.14;98217.28;4993890;28;20614;-61
2023/12/25 05:24:24;;;;;;;2.23;0.93;;;;;;;7.90;97.18;98197.59;4994221;28;20215;-61
2023/12/25 05:26:52;;;;;;;1.67;0.90;;;;;;;7.91;97.59;98213.81;4991644;28;20570;-61
2023/12/25 05:29:20;;;;;;;3.47;1.00;;;;;;;7.89;97.99;98213.88;4993507;28;20207;-59
2023/12/25 05:31:47;;;;;;;0.97;0.80;;;;;;;7.89;98.22;98213.06;4993963;28;20586;-61
2023/12/25 05:34:15;;;;;;;4.90;0.83;;;;;;;7.88;98.85;98224.16;4993658;28;20267;-61
2023/12/25 05:36:45;;;;;;;1.50;0.87;;;;;;;7.85;98.31;98217.44;4993809;28;20677;-61
2023/12/25 05:39:13;;;;;;;1.83;0.90;;;;;;;7.86;98.43;98226.78;4993582;28;20262;-61
2023/12/25 05:41:41;;;;;;;1.10;0.77;;;;;;;7.90;98.72;98222.41;4991342;28;20254;-61
2023/12/25 05:44:10;;;;;;;1.03;1.00;;;;;;;7.91;97.46;98213.81;4993676;28;20640;-60
2023/12/25 05:46:38;;;;;;;4.13;0.87;;;;;;;7.95;96.93;98220.53;4993304;28;20258;-60
2023/12/25 05:49:06;;;;;;;2.50;0.80;;;;;;;7.97;96.16;98227.31;4993341;28;20266;-63
2023/12/25 05:51:35;;;;;;;2.00;1.10;;;;;;;7.98;96.90;98228.97;4993482;28;20734;-59
2023/12/25 05:54:04;;;;;;;0.97;0.77;;;;;;;8.02;96.12;98247.69;4993569;28;20585;-59
2023/12/25 05:56:32;;;;;;;3.70;0.80;;;;;;;8.01;96.09;98228.06;4991727;28;20291;-61
2023/12/25 05:59:00;;;;;;;2.90;0.73;;;;;;;7.98;96.31;98225.56;4993098;28;20238;-61
2023/12/25 06:01:28;;;;;;;2.40;0.83;;;;;;;7.94;95.74;98237.66;4993339;28;20200;-61
2023/12/25 06:03:56;;;;;;;2.40;0.70;;;;;;;7.94;96.50;98229.97;4993188;28;20707;-60
2023/12/25 06:06:24;;;;;;;2.07;0.80;;;;;;;7.92;95.97;98246.28;4993075;28;20208;-61
2023/12/25 06:08:52;;;;;;;0.77;0.73;;;;;;;7.88;95.99;98242.97;4993200;28;20679;-60
2023/12/25 06:11:21;;;;;;;1.10;0.60;;;;;;;7.88;96.30;98248.13;4993029;28;20243;-60
2023/12/25 06:13:49;;;;;;;0.80;0.70;;;;;;;7.86;97.71;98243.91;4991583;28;20661;-61
2023/12/25 06:16:17;;;;;;;0.97;0.73;;;;;;;7.83;99.02;98220.91;4992774;28;20208;-60
2023/12/25 06:18:45;;;;;;;2.70;1.20;;;;;;;7.80;99.53;98205.63;4992718;28;20323;-60
2023/12/25 06:21:14;;;;;;;2.17;1.20;;;;;;;7.79;99.66;98256.06;4992776;28;20729;-61
2023/12/25 06:23:44;;;;;;;1.87;1.23;;;;;;;7.80;100.00;98244.06;4992651;28;20206;-61
2023/12/25 06:26:12;;;;;;;1.80;1.57;;;;;;;7.80;99.75;98257.72;4993131;28;20204;-59
2023/12/25 06:28:41;;;;;;;2.10;1.53;;;;;;;7.80;99.43;98251.75;4991460;28;20725;-61
2023/12/25 06:31:09;;;;;;;3.30;1.10;;;;;;;7.84;98.58;98253.34;4992713;28;20613;-59
2023/12/25 06:33:37;;;;;;;1.70;1.10;;;;;;;7.87;97.82;98258.41;4992747;28;20228;-62
2023/12/25 06:36:06;;;;;;;1.73;0.90;;;;;;;7.91;96.46;98254.84;4992677;28;20204;-59
2023/12/25 06:38:34;;;;;;;3.50;0.97;;;;;;;7.93;96.88;98277.00;4992603;28;20300;-62
2023/12/25 06:41:03;;;;;;;1.63;1.23;;;;;;;7.94;95.32;98257.34;4992712;28;20620;-62
2023/12/25 06:43:31;;;;;;;1.73;1.10;;;;;;;7.96;95.92;98270.97;4992234;28;20303;-61
2023/12/25 06:46:01;;;;;;;1.87;1.03;;;;;;;7.97;95.11;98282.88;4990774;28;20235;-59
2023/12/25 06:48:29;;;;;;;1.67;0.87;;;;;;;7.98;94.27;98287.13;4992191;28;20204;-62
2023/12/25 06:50:57;;;;;;;2.57;0.80;;;;;;;7.97;93.93;98270.91;4992386;28;20638;-61
2023/12/25 06:53:25;;;;;;;1.17;0.93;;;;;;;7.99;93.71;98283.69;4991924;28;20232;-61
2023/12/25 06:55:53;;;;;;;2.17;0.90;;;;;;;7.98;93.77;98285.41;4992423;28;20620;-59
2023/12/25 06:58:21;;;;;;;4.80;1.30;;;;;;;7.98;93.08;98282.84;4987782;28;20208;-60
2023/12/25 07:00:49;;;;;;;1.67;0.67;;;;;;;7.99;93.14;98305.06;4992472;28;20566;-60
2023/12/25 07:03:18;;;;;;;2.13;1.00;;;;;;;8.02;93.09;98298.13;4990862;28;20567;-60
2023/12/25 07:05:48;;;;;;;2.60;1.00;;;;;;;8.02;92.56;98288.72;4979230;28;20628;-61
2023/12/25 07:08:17;;;;;;;3.97;1.10;;;;;;;8.03;91.92;98285.28;4992383;28;20734;-62
2023/12/25 07:10:46;;;;;;;5.80;1.40;;;;;;;8.02;91.67;98278.44;4991869;28;20200;-61
2023/12/25 07:13:14;;;;;;;2.50;1.20;;;;;;;8.01;91.33;98271.66;4991831;28;20226;-60
2023/12/25 07:15:43;;;;;;;1.50;0.73;;;;;;;8.00;91.73;98290.50;4991719;28;20211;-58
2023/12/25 07:18:10;;;;;;;2.83;1.20;;;;;;;8.03;91.39;98285.28;4989792;28;20212;-62
2023/12/25 07:20:40;;;;;;;2.80;1.03;;;;;;;8.01;91.12;98287.03;4990479;28;20204;-62
2023/12/25 07:23:08;;;;;;;1.90;0.90;;;;;;;8.04;90.97;98271.56;4991669;28;20235;-60
2023/12/25 07:25:36;;;;;;;4.70;1.47;;;;;;;8.05;90.27;98273.25;4991623;28;20207;-60
2023/12/25 07:28:04;;;;;;;1.97;0.97;;;;;;;8.06;90.88;98290.31;4992273;28;20200;-61
2023/12/25 07:30:32;;;;;;;4.93;0.87;;;;;;;8.06;90.08;98292.88;4991878;28;20647;-61
2023/12/25 07:33:00;;;;;;;2.37;0.63;;;;;;;8.08;90.36;98278.28;4990954;28;20219;-63
2023/12/25 07:35:28;;;;;;;3.30;1.30;;;;;;;8.09;90.17;98291.94;4992007;28;20605;-61
2023/12/25 07:37:59;;;;;;;1.63;0.90;;;;;;;8.08;90.38;98287.72;4991592;28;20208;-62
2023/12/25 07:40:27;;;;;;;2.40;0.90;;;;;;;8.07;89.90;98286.03;4991545;28;20203;-61
2023/12/25 07:42:55;;;;;;;4.10;0.97;;;;;;;8.09;89.69;98289.38;4990109;28;20203;-64
2023/12/25 07:45:23;;;;;;;1.33;1.00;;;;;;;8.10;89.91;98280.78;4978669;28;20208;-59
2023/12/25 07:47:50;;;;;;;1.93;0.70;;;;;;;8.12;89.63;98276.47;4991497;28;20204;-60
2023/12/25 07:50:19;;;;;;;2.83;0.90;;;;;;;8.15;89.26;98291.78;4991448;28;20203;-61
2023/12/25 07:52:47;;;;;;;3.00;0.90;;;;;;;8.18;89.22;98284.00;4991938;28;20247;-60
2023/12/25 07:55:16;;;;;;;2.60;0.83;;;;;;;8.19;88.63;98280.53;4991708;28;20666;-61
2023/12/25 07:57:44;;;;;;;4.73;1.47;;;;;;;8.21;88.10;98278.75;4990598;28;20691;-60
2023/12/25 08:00:17;;;;;;;3.37;0.80;;;;;;;8.24;88.22;98270.94;4991865;28;20731;-63
2023/12/25 08:02:45;;;;;;;2.03;0.90;;;;;;;8.27;87.53;98283.69;4991566;28;20739;-61
2023/12/25 08:05:13;;;;;;;2.37;1.00;;;;;;;8.32;87.13;98291.25;4994399;28;20204;-61
2023/12/25 08:07:41;;;;;;;4.10;1.03;;;;;;;8.32;87.04;98297.25;4995062;28;20222;-61
2023/12/25 08:10:09;;;;;;;2.50;0.90;;;;;;;8.35;86.91;98292.00;4995308;28;20204;-62
2023/12/25 08:12:42;;;;;;;4.67;1.20;;;;;;;8.37;86.46;98310.78;4993788;28;20212;-62
2023/12/25 08:15:11;;;;;;;2.20;1.10;;;;;;;8.38;87.09;98293.66;4993929;28;20214;-59
2023/12/25 08:17:39;;;;;;;3.27;0.90;;;;;;;8.38;86.71;98288.53;4990267;28;20671;-63
2023/12/25 08:20:09;;;;;;;4.37;1.10;;;;;;;8.42;86.48;98301.22;4995352;28;20254;-60
2023/12/25 08:22:37;;;;;;;2.13;0.97;;;;;;;8.42;87.17;98297.81;4995021;28;20625;-60
2023/12/25 08:25:06;;;;;;;4.03;1.00;;;;;;;8.44;87.75;98291.75;4995280;28;20694;-61
2023/12/25 08:27:34;;;;;;;2.53;1.10;;;;;;;8.47;86.86;98303.66;4995035;28;20609;-61
2023/12/25 08:30:07;;;;;;;3.93;1.40;;;;;;;8.46;87.31;98292.53;4993692;28;20576;-65
2023/12/25 08:32:35;;;;;;;3.20;1.17;;;;;;;8.51;87.10;98310.38;4995089;28;20659;-62
2023/12/25 08:35:04;;;;;;;2.47;0.80;;;;;;;8.54;86.77;98299.16;4994958;28;20222;-61
2023/12/25 08:37:32;;;;;;;4.17;1.07;;;;;;;8.58;86.80;98317.00;4995045;28;20562;-62
2023/12/25 08:40:00;;;;;;;4.47;1.00;;;;;;;8.60;86.37;98291.25;4994866;28;20266;-61
2023/12/25 08:42:28;;;;;;;4.47;1.13;;;;;;;8.64;86.00;98316.78;4993105;28;20204;-61
2023/12/25 08:44:55;;;;;;;3.03;0.90;;;;;;;8.69;85.12;98317.50;4995111;28;20231;-60
2023/12/25 08:47:26;;;;;;;3.40;1.20;;;;;;;8.72;84.96;98316.53;4994886;28;20754;-61
2023/12/25 08:49:54;;;;;;;3.73;1.10;;;;;;;8.74;85.23;98319.06;4994422;28;20216;-60
2023/12/25 08:52:24;;;;;;;2.27;1.17;;;;;;;8.74;85.34;98324.22;4994427;28;20294;-61
2023/12/25 08:54:52;;;;;;;4.90;1.40;;;;;;;8.75;85.15;98315.63;4994647;28;20243;-62
2023/12/25 08:57:20;;;;;;;2.37;1.10;;;;;;;8.75;84.90;98313.88;4992749;28;20211;-62
2023/12/25 08:59:49;;;;;;;4.27;1.60;;;;;;;8.78;84.87;98316.34;4994212;28;20200;-62
2023/12/25 09:02:19;;;;;;;3.33;1.23;;;;;;;8.79;84.37;98330.03;4994310;28;20208;-62
2023/12/25 09:04:49;;;;;;;2.63;1.30;;;;;;;8.76;84.17;98307.00;4986906;28;20234;-61
2023/12/25 09:07:18;;;;;;;2.63;1.00;;;;;;;8.77;84.37;98313.84;4994392;28;20548;-61
2023/12/25 09:09:45;;;;;;;2.50;1.33;;;;;;;8.75;84.64;98313.03;4994323;28;20212;-60
2023/12/25 09:12:13;;;;;;;2.83;1.00;;;;;;;8.75;84.09;98313.88;4994215;28;20207;-61
2023/12/25 09:14:41;;;;;;;4.30;1.37;;;;;;;8.77;84.02;98313.84;4992316;28;20216;-62
2023/12/25 09:17:09;;;;;;;4.10;1.57;;;;;;;8.80;84.33;98313.72;4991310;28;20216;-62
2023/12/25 09:19:37;;;;;;;4.53;1.40;;;;;;;8.85;83.93;98314.44;4994520;28;20674;-61
2023/12/25 09:22:07;;;;;;;1.70;1.00;;;;;;;8.87;84.24;98312.63;4993799;28;20247;-61
2023/12/25 09:24:35;;;;;;;3.63;1.40;;;;;;;8.90;84.09;98292.00;4981780;28;20204;-62
2023/12/25 09:27:04;;;;;;;5.67;1.23;;;;;;;8.91;83.70;98306.50;4993894;28;20250;-61
2023/12/25 09:29:32;;;;;;;4.47;1.00;;;;;;;8.93;83.43;98312.44;4994064;28;20212;-62
2023/12/25 09:32:00;;;;;;;2.40;1.03;;;;;;;8.97;83.28;98308.88;4994101;28;20856;-63
2023/12/25 09:34:28;;;;;;;2.63;1.30;;;;;;;9.00;83.10;98285.66;4992558;28;20301;-61
2023/12/25 09:37:13;;;;;;;2.60;1.40;;;;;;;9.04;83.28;98301.81;4994000;28;20644;-61
2023/12/25 09:39:43;;;;;;;2.97;1.00;;;;;;;9.05;82.75;98291.47;4993556;28;20235;-61
2023/12/25 09:42:11;;;;;;;1.33;1.03;;;;;;;9.06;82.91;98293.19;4993544;28;20212;-61
2023/12/25 09:44:39;;;;;;;2.30;1.23;;;;;;;9.09;82.94;98294.78;4993625;28;20635;-60
2023/12/25 09:47:08;;;;;;;2.80;1.30;;;;;;;9.11;82.86;98293.84;4993809;28;20719;-62
2023/12/25 09:49:37;;;;;;;5.07;1.30;;;;;;;9.16;82.63;98281.69;4991975;28;20208;-61
2023/12/25 09:52:06;;;;;;;3.07;1.30;;;;;;;9.20;82.86;98282.41;4993308;28;20200;-61
2023/12/25 09:54:35;;;;;;;1.40;1.23;;;;;;;9.25;82.40;98287.41;4993516;28;20274;-61
2023/12/25 09:57:04;;;;;;;2.50;1.50;;;;;;;9.30;81.89;98273.50;4992288;28;20235;-62
2023/12/25 09:59:32;;;;;;;1.67;1.10;;;;;;;9.35;81.59;98291.31;4993361;28;20247;-61
2023/12/25 10:02:06;;;;;;;3.13;1.23;;;;;;;9.37;81.37;98269.00;4993184;28;20208;-61
2023/12/25 10:04:37;;;;;;;3.47;1.33;;;;;;;9.39;80.66;98280.06;4993135;28;20204;-63
2023/12/25 10:07:06;;;;;;;2.20;1.20;;;;;;;9.41;80.67;98276.53;4991878;28;20216;-60
2023/12/25 10:09:37;;;;;;;3.37;1.30;;;;;;;9.45;80.84;98297.84;4992978;28;20208;-62
2023/12/25 10:12:06;;;;;;;2.87;1.20;;;;;;;9.40;80.37;98298.00;4993046;28;20246;-61
2023/12/25 10:14:35;;;;;;;3.43;1.37;;;;;;;9.38;80.10;98288.66;4982150;28;20219;-60
2023/12/25 10:17:04;;;;;;;4.20;1.60;;;;;;;9.37;79.99;98294.69;4991213;28;20204;-64
2023/12/25 10:19:32;;;;;;;5.93;2.07;;;;;;;9.36;80.52;98267.31;4993098;28;20719;-63
2023/12/25 10:22:00;;;;;;;4.30;1.73;;;;;;;9.36;80.47;98293.03;4992396;28;20246;-61
2023/12/25 10:24:29;;;;;;;5.73;1.70;;;;;;;9.34;80.49;98280.22;4993054;28;20655;-60
2023/12/25 10:27:02;;;;;;;2.37;1.20;;;;;;;9.33;80.03;98288.81;4991065;28;20655;-61
2023/12/25 10:29:35;;;;;;;3.40;1.37;;;;;;;9.34;79.68;98299.94;4992841;28;20195;-62
2023/12/25 10:32:18;;;;;;;2.13;1.50;;;;;;;9.30;79.62;98296.63;4991263;28;20667;-61
2023/12/25 10:34:46;;;;;;;3.83;1.80;;;;;;;9.31;79.85;98290.59;4992707;28;20212;-61
2023/12/25 10:37:16;;;;;;;2.17;1.60;;;;;;;9.31;80.67;98279.47;4992369;28;20231;-61
2023/12/25 10:39:44;;;;;;;4.70;1.57;;;;;;;9.31;79.99;98279.47;4992536;28;20266;-62
2023/12/25 10:42:13;;;;;;;2.87;1.50;;;;;;;9.31;79.97;98289.75;4992314;28;20267;-62
2023/12/25 10:44:45;;;;;;;1.80;1.33;;;;;;;9.32;80.52;98286.31;4992448;28;20216;-60
2023/12/25 10:47:14;;;;;;;3.10;1.23;;;;;;;9.32;80.25;98291.47;4989711;28;20315;-61
2023/12/25 10:49:45;;;;;;;2.10;1.50;;;;;;;9.34;79.83;98293.06;4992084;28;20208;-61
2023/12/25 10:52:13;;;;;;;2.53;1.40;;;;;;;9.37;79.84;98294.69;4990150;28;20231;-61
2023/12/25 10:54:47;;;;;;;3.27;1.20;;;;;;;9.39;79.61;98267.22;4992351;28;20602;-62
2023/12/25 10:57:17;;;;;;;4.80;1.70;;;;;;;9.44;79.99;98267.88;4992076;28;20203;-64
2023/12/25 10:59:46;;;;;;;3.97;1.70;;;;;;;9.49;80.18;98273.69;4992090;28;20204;-61
2023/12/25 11:02:17;;;;;;;4.77;1.50;;;;;;;9.54;79.91;98281.25;4992365;28;20651;-61
2023/12/25 11:04:46;;;;;;;1.93;1.40;;;;;;;9.58;79.75;98247.66;4992185;28;20336;-56
2023/12/25 11:07:17;;;;;;;3.60;1.47;;;;;;;9.64;78.62;98262.84;4992111;28;20223;-52
2023/12/25 11:09:45;;;;;;;4.30;1.40;;;;;;;9.74;78.30;98262.53;4982339;28;20302;-51
2023/12/25 11:12:14;;;;;;;2.77;1.50;;;;;;;9.82;77.78;98260.50;4989157;28;20513;-54
2023/12/25 11:14:43;;;;;;;2.97;1.40;;;;;;;9.86;77.42;98254.34;4988511;28;20223;-56
2023/12/25 11:17:13;;;;;;;2.60;1.10;;;;;;;9.87;77.39;98246.59;4989397;28;20223;-53
2023/12/25 11:19:41;;;;;;;2.33;1.30;;;;;;;9.86;76.55;98274.94;4991132;28;20211;-52
2023/12/25 11:22:26;;;;;;;3.63;1.53;;;;;;;9.84;76.58;98276.75;4991804;28;20766;-55
2023/12/25 11:24:54;;;;;;;2.53;1.50;;;;;;;9.78;76.90;98269.22;4982214;28;20282;-53
2023/12/25 11:27:22;;;;;;;3.73;1.20;;;;;;;9.75;77.20;98280.47;4991900;28;20266;-56
2023/12/25 11:29:51;;;;;;;4.13;1.50;;;;;;;9.70;77.86;98272.09;4992025;28;20654;-57
2023/12/25 11:32:20;;;;;;;2.70;1.50;;;;;;;9.67;77.91;98285.88;4991798;28;20233;-56
2023/12/25 11:34:49;;;;;;;4.13;1.33;;;;;;;9.64;79.04;98262.84;4990427;28;20220;-55
2023/12/25 11:37:20;;;;;;;2.70;1.50;;;;;;;9.67;80.55;98285.88;4991810;28;20216;-54
2023/12/25 11:39:59;;;;;;;3.27;1.73;;;;;;;9.64;81.34;98267.16;4994626;28;20204;-58
2023/12/25 11:42:27;;;;;;;2.67;1.30;;;;;;;9.61;81.29;98273.28;4996302;28;20199;-54
2023/12/25 11:45:02;;;;;;;3.47;1.07;;;;;;;9.65;79.93;98274.00;4996052;28;20250;-55
2023/12/25 11:47:44;;;;;;;2.60;1.33;;;;;;;9.70;78.91;98273.81;4995749;28;20203;-53